sensor_id;sensor_type;location;lat;lon;timestamp;P1;durP1;ratioP1;P2;durP2;ratioP2
3121;SDS011;1571;52.524;14.104;2023-03-01T00:01:23;7.83;;;7.00;;
3121;SDS011;1571;52.524;14.104;2023-03-01T00:03:53;11.37;;;7.60;;
3121;SDS011;1571;52.524;14.104;2023-03-01T00:06:22;13.20;;;7.37;;
3121;SDS011;1571;52.524;14.104;2023-03-01T00:08:51;12.37;;;7.90;;
3121;SDS011;1571;52.524;14.104;2023-03-01T00:11:21;14.13;;;9.18;;
3121;SDS011;1571;52.524;14.104;2023-03-01T00:13:51;13.17;;;8.17;;
3121;SDS011;1571;52.524;14.104;2023-03-01T00:16:22;12.30;;;8.70;;
3121;SDS011;1571;52.524;14.104;2023-03-01T00:18:51;13.90;;;8.50;;
3121;SDS011;1571;52.524;14.104;2023-03-01T00:21:21;11.03;;;7.80;;
3121;SDS011;1571;52.524;14.104;2023-03-01T00:23:50;17.73;;;9.63;;
3121;SDS011;1571;52.524;14.104;2023-03-01T00:26:19;11.27;;;7.80;;
3121;SDS011;1571;52.524;14.104;2023-03-01T00:28:50;10.57;;;8.00;;
3121;SDS011;1571;52.524;14.104;2023-03-01T00:31:19;15.13;;;8.70;;
3121;SDS011;1571;52.524;14.104;2023-03-01T00:33:51;11.27;;;7.77;;
3121;SDS011;1571;52.524;14.104;2023-03-01T00:36:24;15.47;;;7.20;;
3121;SDS011;1571;52.524;14.104;2023-03-01T00:38:53;11.83;;;8.70;;
3121;SDS011;1571;52.524;14.104;2023-03-01T00:41:23;13.77;;;7.40;;
3121;SDS011;1571;52.524;14.104;2023-03-01T00:43:53;10.97;;;6.73;;
3121;SDS011;1571;52.524;14.104;2023-03-01T00:46:22;12.90;;;8.20;;
3121;SDS011;1571;52.524;14.104;2023-03-01T00:48:52;9.20;;;6.97;;
3121;SDS011;1571;52.524;14.104;2023-03-01T00:51:21;10.03;;;7.20;;
3121;SDS011;1571;52.524;14.104;2023-03-01T00:53:51;14.03;;;7.33;;
3121;SDS011;1571;52.524;14.104;2023-03-01T00:56:20;12.97;;;8.20;;
3121;SDS011;1571;52.524;14.104;2023-03-01T00:58:50;10.60;;;7.70;;
3121;SDS011;1571;52.524;14.104;2023-03-01T01:01:19;10.43;;;7.30;;
3121;SDS011;1571;52.524;14.104;2023-03-01T01:03:49;14.40;;;8.27;;
3121;SDS011;1571;52.524;14.104;2023-03-01T01:06:19;17.70;;;8.70;;
3121;SDS011;1571;52.524;14.104;2023-03-01T01:08:50;12.38;;;7.55;;
3121;SDS011;1571;52.524;14.104;2023-03-01T01:11:19;12.90;;;8.50;;
3121;SDS011;1571;52.524;14.104;2023-03-01T01:13:50;16.93;;;7.97;;
3121;SDS011;1571;52.524;14.104;2023-03-01T01:16:20;10.03;;;6.70;;
3121;SDS011;1571;52.524;14.104;2023-03-01T01:18:50;11.10;;;7.03;;
3121;SDS011;1571;52.524;14.104;2023-03-01T01:21:19;13.18;;;8.70;;
3121;SDS011;1571;52.524;14.104;2023-03-01T01:23:50;10.68;;;7.20;;
3121;SDS011;1571;52.524;14.104;2023-03-01T01:26:19;14.70;;;8.90;;
3121;SDS011;1571;52.524;14.104;2023-03-01T01:28:51;10.20;;;7.20;;
3121;SDS011;1571;52.524;14.104;2023-03-01T01:31:19;15.70;;;9.63;;
3121;SDS011;1571;52.524;14.104;2023-03-01T01:33:50;11.43;;;7.27;;
3121;SDS011;1571;52.524;14.104;2023-03-01T01:36:19;13.93;;;7.90;;
3121;SDS011;1571;52.524;14.104;2023-03-01T01:38:48;13.13;;;7.03;;
3121;SDS011;1571;52.524;14.104;2023-03-01T01:41:16;11.37;;;6.47;;
3121;SDS011;1571;52.524;14.104;2023-03-01T01:43:46;10.97;;;7.57;;
3121;SDS011;1571;52.524;14.104;2023-03-01T01:46:21;11.53;;;7.50;;
3121;SDS011;1571;52.524;14.104;2023-03-01T01:48:57;10.33;;;7.40;;
3121;SDS011;1571;52.524;14.104;2023-03-01T01:51:29;9.90;;;7.50;;
3121;SDS011;1571;52.524;14.104;2023-03-01T01:54:05;13.03;;;7.40;;
3121;SDS011;1571;52.524;14.104;2023-03-01T01:56:37;8.40;;;5.80;;
3121;SDS011;1571;52.524;14.104;2023-03-01T01:59:10;6.87;;;5.80;;
3121;SDS011;1571;52.524;14.104;2023-03-01T02:01:41;12.40;;;6.63;;
3121;SDS011;1571;52.524;14.104;2023-03-01T02:04:10;10.60;;;6.50;;
3121;SDS011;1571;52.524;14.104;2023-03-01T02:06:39;8.70;;;6.20;;
3121;SDS011;1571;52.524;14.104;2023-03-01T02:09:13;8.63;;;7.07;;
3121;SDS011;1571;52.524;14.104;2023-03-01T02:11:43;7.13;;;5.67;;
3121;SDS011;1571;52.524;14.104;2023-03-01T02:14:14;12.17;;;6.20;;
3121;SDS011;1571;52.524;14.104;2023-03-01T02:16:44;9.30;;;6.60;;
3121;SDS011;1571;52.524;14.104;2023-03-01T02:19:17;11.10;;;5.60;;
3121;SDS011;1571;52.524;14.104;2023-03-01T02:21:56;6.83;;;5.63;;
3121;SDS011;1571;52.524;14.104;2023-03-01T02:24:37;7.13;;;5.60;;
3121;SDS011;1571;52.524;14.104;2023-03-01T02:27:18;11.73;;;6.10;;
3121;SDS011;1571;52.524;14.104;2023-03-01T02:29:52;9.40;;;5.60;;
3121;SDS011;1571;52.524;14.104;2023-03-01T02:32:23;6.20;;;5.30;;
3121;SDS011;1571;52.524;14.104;2023-03-01T02:34:52;8.07;;;5.63;;
3121;SDS011;1571;52.524;14.104;2023-03-01T02:37:22;5.97;;;5.20;;
3121;SDS011;1571;52.524;14.104;2023-03-01T02:39:55;9.90;;;5.77;;
3121;SDS011;1571;52.524;14.104;2023-03-01T02:42:26;8.50;;;4.68;;
3121;SDS011;1571;52.524;14.104;2023-03-01T02:45:00;7.03;;;4.03;;
3121;SDS011;1571;52.524;14.104;2023-03-01T02:47:29;6.20;;;4.63;;
3121;SDS011;1571;52.524;14.104;2023-03-01T02:49:57;7.13;;;4.70;;
3121;SDS011;1571;52.524;14.104;2023-03-01T02:52:32;6.67;;;4.80;;
3121;SDS011;1571;52.524;14.104;2023-03-01T02:55:09;27.07;;;11.60;;
3121;SDS011;1571;52.524;14.104;2023-03-01T02:57:42;76.47;;;33.40;;
3121;SDS011;1571;52.524;14.104;2023-03-01T03:00:14;101.25;;;33.00;;
3121;SDS011;1571;52.524;14.104;2023-03-01T03:02:47;33.67;;;17.03;;
3121;SDS011;1571;52.524;14.104;2023-03-01T03:05:19;22.40;;;11.10;;
3121;SDS011;1571;52.524;14.104;2023-03-01T03:07:52;11.87;;;6.40;;
3121;SDS011;1571;52.524;14.104;2023-03-01T03:10:22;13.37;;;7.27;;
3121;SDS011;1571;52.524;14.104;2023-03-01T03:12:53;7.47;;;4.85;;
3121;SDS011;1571;52.524;14.104;2023-03-01T03:15:24;6.37;;;5.20;;
3121;SDS011;1571;52.524;14.104;2023-03-01T03:17:55;8.30;;;5.83;;
3121;SDS011;1571;52.524;14.104;2023-03-01T03:20:25;6.75;;;5.53;;
3121;SDS011;1571;52.524;14.104;2023-03-01T03:22:55;8.50;;;6.87;;
3121;SDS011;1571;52.524;14.104;2023-03-01T03:25:26;10.50;;;5.90;;
3121;SDS011;1571;52.524;14.104;2023-03-01T03:27:56;7.55;;;6.03;;
3121;SDS011;1571;52.524;14.104;2023-03-01T03:30:27;7.47;;;5.10;;
3121;SDS011;1571;52.524;14.104;2023-03-01T03:32:57;6.93;;;5.27;;
3121;SDS011;1571;52.524;14.104;2023-03-01T03:35:27;7.80;;;4.53;;
3121;SDS011;1571;52.524;14.104;2023-03-01T03:37:58;12.93;;;5.45;;
3121;SDS011;1571;52.524;14.104;2023-03-01T03:40:31;6.13;;;4.97;;
3121;SDS011;1571;52.524;14.104;2023-03-01T03:43:00;7.55;;;5.32;;
3121;SDS011;1571;52.524;14.104;2023-03-01T03:45:30;6.93;;;6.00;;
3121;SDS011;1571;52.524;14.104;2023-03-01T03:48:00;6.30;;;4.77;;
3121;SDS011;1571;52.524;14.104;2023-03-01T03:50:29;7.13;;;5.47;;
3121;SDS011;1571;52.524;14.104;2023-03-01T03:52:57;6.17;;;4.70;;
3121;SDS011;1571;52.524;14.104;2023-03-01T03:55:28;9.60;;;4.30;;
3121;SDS011;1571;52.524;14.104;2023-03-01T03:57:57;6.63;;;5.20;;
3121;SDS011;1571;52.524;14.104;2023-03-01T04:00:29;6.63;;;4.90;;
3121;SDS011;1571;52.524;14.104;2023-03-01T04:02:58;6.30;;;5.57;;
3121;SDS011;1571;52.524;14.104;2023-03-01T04:05:27;5.00;;;4.23;;
3121;SDS011;1571;52.524;14.104;2023-03-01T04:07:56;10.20;;;5.30;;
3121;SDS011;1571;52.524;14.104;2023-03-01T04:10:35;8.20;;;4.00;;
3121;SDS011;1571;52.524;14.104;2023-03-01T04:13:06;9.60;;;5.23;;
3121;SDS011;1571;52.524;14.104;2023-03-01T04:15:36;6.10;;;4.50;;
3121;SDS011;1571;52.524;14.104;2023-03-01T04:18:04;4.70;;;4.00;;
3121;SDS011;1571;52.524;14.104;2023-03-01T04:20:34;5.67;;;3.70;;
3121;SDS011;1571;52.524;14.104;2023-03-01T04:23:04;5.53;;;4.40;;
3121;SDS011;1571;52.524;14.104;2023-03-01T04:25:40;5.47;;;3.87;;
3121;SDS011;1571;52.524;14.104;2023-03-01T04:28:10;5.20;;;3.80;;
3121;SDS011;1571;52.524;14.104;2023-03-01T04:30:40;4.97;;;4.00;;
3121;SDS011;1571;52.524;14.104;2023-03-01T04:33:09;4.90;;;3.53;;
3121;SDS011;1571;52.524;14.104;2023-03-01T04:35:38;4.07;;;3.60;;
3121;SDS011;1571;52.524;14.104;2023-03-01T04:38:07;5.50;;;3.60;;
3121;SDS011;1571;52.524;14.104;2023-03-01T04:40:36;4.20;;;3.27;;
3121;SDS011;1571;52.524;14.104;2023-03-01T04:43:04;6.40;;;5.13;;
3121;SDS011;1571;52.524;14.104;2023-03-01T04:45:33;10.03;;;5.13;;
3121;SDS011;1571;52.524;14.104;2023-03-01T04:48:04;9.37;;;4.73;;
3121;SDS011;1571;52.524;14.104;2023-03-01T04:50:32;6.70;;;4.40;;
3121;SDS011;1571;52.524;14.104;2023-03-01T04:53:00;12.33;;;5.80;;
3121;SDS011;1571;52.524;14.104;2023-03-01T04:55:29;6.53;;;4.20;;
3121;SDS011;1571;52.524;14.104;2023-03-01T04:57:58;6.10;;;5.10;;
3121;SDS011;1571;52.524;14.104;2023-03-01T05:00:26;4.40;;;3.97;;
3121;SDS011;1571;52.524;14.104;2023-03-01T05:02:56;3.77;;;3.43;;
3121;SDS011;1571;52.524;14.104;2023-03-01T05:05:28;6.97;;;4.87;;
3121;SDS011;1571;52.524;14.104;2023-03-01T05:07:59;6.67;;;5.70;;
3121;SDS011;1571;52.524;14.104;2023-03-01T05:10:30;8.60;;;5.80;;
3121;SDS011;1571;52.524;14.104;2023-03-01T05:12:59;7.53;;;5.30;;
3121;SDS011;1571;52.524;14.104;2023-03-01T05:15:29;10.20;;;6.90;;
3121;SDS011;1571;52.524;14.104;2023-03-01T05:17:59;8.73;;;7.70;;
3121;SDS011;1571;52.524;14.104;2023-03-01T05:20:29;9.33;;;7.23;;
3121;SDS011;1571;52.524;14.104;2023-03-01T05:22:59;7.23;;;6.13;;
3121;SDS011;1571;52.524;14.104;2023-03-01T05:25:32;8.80;;;6.30;;
3121;SDS011;1571;52.524;14.104;2023-03-01T05:28:07;11.90;;;6.33;;
3121;SDS011;1571;52.524;14.104;2023-03-01T05:30:39;11.20;;;6.93;;
3121;SDS011;1571;52.524;14.104;2023-03-01T05:33:10;10.40;;;6.83;;
3121;SDS011;1571;52.524;14.104;2023-03-01T05:35:42;10.17;;;6.33;;
3121;SDS011;1571;52.524;14.104;2023-03-01T05:38:11;8.57;;;5.50;;
3121;SDS011;1571;52.524;14.104;2023-03-01T05:40:41;5.00;;;4.53;;
3121;SDS011;1571;52.524;14.104;2023-03-01T05:43:11;10.10;;;5.40;;
3121;SDS011;1571;52.524;14.104;2023-03-01T05:45:40;7.20;;;3.63;;
3121;SDS011;1571;52.524;14.104;2023-03-01T05:48:09;4.47;;;4.07;;
3121;SDS011;1571;52.524;14.104;2023-03-01T05:50:39;7.90;;;4.60;;
3121;SDS011;1571;52.524;14.104;2023-03-01T05:53:11;9.03;;;3.73;;
3121;SDS011;1571;52.524;14.104;2023-03-01T05:55:42;6.47;;;5.00;;
3121;SDS011;1571;52.524;14.104;2023-03-01T05:58:12;5.93;;;3.70;;
3121;SDS011;1571;52.524;14.104;2023-03-01T06:00:42;6.20;;;4.90;;
3121;SDS011;1571;52.524;14.104;2023-03-01T06:03:12;6.13;;;4.30;;
3121;SDS011;1571;52.524;14.104;2023-03-01T06:05:42;8.37;;;4.50;;
3121;SDS011;1571;52.524;14.104;2023-03-01T06:08:12;8.30;;;4.60;;
3121;SDS011;1571;52.524;14.104;2023-03-01T06:10:41;7.33;;;5.73;;
3121;SDS011;1571;52.524;14.104;2023-03-01T06:13:09;12.23;;;6.80;;
3121;SDS011;1571;52.524;14.104;2023-03-01T06:15:37;8.95;;;6.60;;
3121;SDS011;1571;52.524;14.104;2023-03-01T06:18:05;17.47;;;9.70;;
3121;SDS011;1571;52.524;14.104;2023-03-01T06:20:33;21.93;;;12.30;;
3121;SDS011;1571;52.524;14.104;2023-03-01T06:23:02;49.63;;;25.98;;
3121;SDS011;1571;52.524;14.104;2023-03-01T06:25:32;33.33;;;18.70;;
3121;SDS011;1571;52.524;14.104;2023-03-01T06:28:00;24.87;;;13.47;;
3121;SDS011;1571;52.524;14.104;2023-03-01T06:30:28;27.50;;;13.60;;
3121;SDS011;1571;52.524;14.104;2023-03-01T06:32:56;6.93;;;5.15;;
3121;SDS011;1571;52.524;14.104;2023-03-01T06:35:28;5.93;;;4.83;;
3121;SDS011;1571;52.524;14.104;2023-03-01T06:37:58;7.10;;;4.40;;
3121;SDS011;1571;52.524;14.104;2023-03-01T06:40:27;6.70;;;3.77;;
3121;SDS011;1571;52.524;14.104;2023-03-01T06:42:59;7.13;;;4.20;;
3121;SDS011;1571;52.524;14.104;2023-03-01T06:45:27;9.23;;;4.53;;
3121;SDS011;1571;52.524;14.104;2023-03-01T06:48:03;10.07;;;6.00;;
3121;SDS011;1571;52.524;14.104;2023-03-01T06:50:32;5.80;;;5.20;;
3121;SDS011;1571;52.524;14.104;2023-03-01T06:53:02;8.68;;;5.43;;
3121;SDS011;1571;52.524;14.104;2023-03-01T06:55:31;10.40;;;6.78;;
3121;SDS011;1571;52.524;14.104;2023-03-01T06:58:01;11.70;;;7.13;;
3121;SDS011;1571;52.524;14.104;2023-03-01T07:00:30;20.87;;;13.30;;
3121;SDS011;1571;52.524;14.104;2023-03-01T07:02:59;24.50;;;13.50;;
3121;SDS011;1571;52.524;14.104;2023-03-01T07:05:29;14.37;;;10.17;;
3121;SDS011;1571;52.524;14.104;2023-03-01T07:07:58;17.83;;;9.67;;
3121;SDS011;1571;52.524;14.104;2023-03-01T07:10:26;12.10;;;10.07;;
3121;SDS011;1571;52.524;14.104;2023-03-01T07:12:55;9.63;;;7.20;;
3121;SDS011;1571;52.524;14.104;2023-03-01T07:15:25;11.63;;;6.23;;
3121;SDS011;1571;52.524;14.104;2023-03-01T07:17:55;9.45;;;5.97;;
3121;SDS011;1571;52.524;14.104;2023-03-01T07:20:24;5.40;;;4.63;;
3121;SDS011;1571;52.524;14.104;2023-03-01T07:22:52;7.33;;;5.13;;
3121;SDS011;1571;52.524;14.104;2023-03-01T07:25:21;5.53;;;4.10;;
3121;SDS011;1571;52.524;14.104;2023-03-01T07:27:50;6.53;;;5.13;;
3121;SDS011;1571;52.524;14.104;2023-03-01T07:30:19;5.87;;;4.80;;
3121;SDS011;1571;52.524;14.104;2023-03-01T07:32:49;8.30;;;5.20;;
3121;SDS011;1571;52.524;14.104;2023-03-01T07:35:18;5.43;;;4.50;;
3121;SDS011;1571;52.524;14.104;2023-03-01T07:37:47;7.07;;;4.53;;
3121;SDS011;1571;52.524;14.104;2023-03-01T07:40:15;8.30;;;6.10;;
3121;SDS011;1571;52.524;14.104;2023-03-01T07:42:44;7.50;;;4.80;;
3121;SDS011;1571;52.524;14.104;2023-03-01T07:45:12;8.03;;;6.90;;
3121;SDS011;1571;52.524;14.104;2023-03-01T07:47:40;9.13;;;8.23;;
3121;SDS011;1571;52.524;14.104;2023-03-01T07:50:10;12.98;;;7.80;;
3121;SDS011;1571;52.524;14.104;2023-03-01T07:52:40;10.27;;;6.87;;
3121;SDS011;1571;52.524;14.104;2023-03-01T07:55:08;7.40;;;6.30;;
3121;SDS011;1571;52.524;14.104;2023-03-01T07:57:37;8.60;;;6.20;;
3121;SDS011;1571;52.524;14.104;2023-03-01T08:00:06;12.17;;;7.93;;
3121;SDS011;1571;52.524;14.104;2023-03-01T08:02:38;11.97;;;7.60;;
3121;SDS011;1571;52.524;14.104;2023-03-01T08:05:08;8.70;;;6.97;;
3121;SDS011;1571;52.524;14.104;2023-03-01T08:07:38;14.33;;;9.43;;
3121;SDS011;1571;52.524;14.104;2023-03-01T08:10:06;16.52;;;10.65;;
3121;SDS011;1571;52.524;14.104;2023-03-01T08:12:35;15.77;;;9.93;;
3121;SDS011;1571;52.524;14.104;2023-03-01T08:15:03;16.75;;;13.05;;
3121;SDS011;1571;52.524;14.104;2023-03-01T08:17:32;18.83;;;13.20;;
3121;SDS011;1571;52.524;14.104;2023-03-01T08:20:00;21.60;;;12.50;;
3121;SDS011;1571;52.524;14.104;2023-03-01T08:22:30;20.97;;;12.23;;
3121;SDS011;1571;52.524;14.104;2023-03-01T08:24:59;17.43;;;10.80;;
3121;SDS011;1571;52.524;14.104;2023-03-01T08:27:27;17.20;;;10.03;;
3121;SDS011;1571;52.524;14.104;2023-03-01T08:29:56;14.47;;;9.43;;
3121;SDS011;1571;52.524;14.104;2023-03-01T08:32:24;11.70;;;8.13;;
3121;SDS011;1571;52.524;14.104;2023-03-01T08:34:52;12.77;;;8.52;;
3121;SDS011;1571;52.524;14.104;2023-03-01T08:37:20;9.67;;;7.43;;
3121;SDS011;1571;52.524;14.104;2023-03-01T08:39:48;13.40;;;7.00;;
3121;SDS011;1571;52.524;14.104;2023-03-01T08:42:18;12.70;;;6.60;;
3121;SDS011;1571;52.524;14.104;2023-03-01T08:44:46;7.63;;;5.33;;
3121;SDS011;1571;52.524;14.104;2023-03-01T08:47:15;8.47;;;5.93;;
3121;SDS011;1571;52.524;14.104;2023-03-01T08:49:43;10.83;;;5.03;;
3121;SDS011;1571;52.524;14.104;2023-03-01T08:52:11;6.80;;;4.30;;
3121;SDS011;1571;52.524;14.104;2023-03-01T08:54:39;10.90;;;6.37;;
3121;SDS011;1571;52.524;14.104;2023-03-01T08:57:07;5.60;;;4.40;;
3121;SDS011;1571;52.524;14.104;2023-03-01T08:59:37;3.60;;;2.57;;
3121;SDS011;1571;52.524;14.104;2023-03-01T09:02:08;3.70;;;3.33;;
3121;SDS011;1571;52.524;14.104;2023-03-01T09:04:40;3.57;;;3.27;;
3121;SDS011;1571;52.524;14.104;2023-03-01T09:07:08;4.27;;;2.97;;
3121;SDS011;1571;52.524;14.104;2023-03-01T09:09:37;3.43;;;2.97;;
3121;SDS011;1571;52.524;14.104;2023-03-01T09:12:05;3.13;;;2.73;;
3121;SDS011;1571;52.524;14.104;2023-03-01T09:14:34;3.53;;;3.23;;
3121;SDS011;1571;52.524;14.104;2023-03-01T09:17:05;4.63;;;2.83;;
3121;SDS011;1571;52.524;14.104;2023-03-01T09:19:34;5.93;;;3.20;;
3121;SDS011;1571;52.524;14.104;2023-03-01T09:22:02;3.83;;;2.97;;
3121;SDS011;1571;52.524;14.104;2023-03-01T09:24:31;2.80;;;2.53;;
3121;SDS011;1571;52.524;14.104;2023-03-01T09:26:59;6.90;;;3.13;;
3121;SDS011;1571;52.524;14.104;2023-03-01T09:29:28;4.30;;;2.67;;
3121;SDS011;1571;52.524;14.104;2023-03-01T09:31:56;5.00;;;2.40;;
3121;SDS011;1571;52.524;14.104;2023-03-01T09:34:26;5.30;;;3.30;;
3121;SDS011;1571;52.524;14.104;2023-03-01T09:36:54;4.20;;;2.90;;
3121;SDS011;1571;52.524;14.104;2023-03-01T09:39:22;3.90;;;2.20;;
3121;SDS011;1571;52.524;14.104;2023-03-01T09:41:53;3.83;;;3.37;;
3121;SDS011;1571;52.524;14.104;2023-03-01T09:44:33;2.75;;;2.50;;
3121;SDS011;1571;52.524;14.104;2023-03-01T09:47:09;4.50;;;2.90;;
3121;SDS011;1571;52.524;14.104;2023-03-01T09:49:45;4.70;;;2.77;;
3121;SDS011;1571;52.524;14.104;2023-03-01T09:52:23;3.27;;;2.03;;
3121;SDS011;1571;52.524;14.104;2023-03-01T09:54:56;4.30;;;1.97;;
3121;SDS011;1571;52.524;14.104;2023-03-01T09:57:28;2.73;;;2.17;;
3121;SDS011;1571;52.524;14.104;2023-03-01T10:00:13;2.67;;;2.10;;
3121;SDS011;1571;52.524;14.104;2023-03-01T10:02:48;2.00;;;1.90;;
3121;SDS011;1571;52.524;14.104;2023-03-01T10:05:29;2.40;;;2.03;;
3121;SDS011;1571;52.524;14.104;2023-03-01T10:08:11;2.60;;;2.20;;
3121;SDS011;1571;52.524;14.104;2023-03-01T10:10:58;4.13;;;1.90;;
3121;SDS011;1571;52.524;14.104;2023-03-01T10:13:27;2.10;;;1.88;;
3121;SDS011;1571;52.524;14.104;2023-03-01T10:16:01;2.40;;;1.63;;
3121;SDS011;1571;52.524;14.104;2023-03-01T10:18:37;2.73;;;2.53;;
3121;SDS011;1571;52.524;14.104;2023-03-01T10:21:12;6.50;;;3.28;;
3121;SDS011;1571;52.524;14.104;2023-03-01T10:23:43;2.67;;;2.47;;
3121;SDS011;1571;52.524;14.104;2023-03-01T10:26:16;1.95;;;1.70;;
3121;SDS011;1571;52.524;14.104;2023-03-01T10:28:58;2.37;;;2.17;;
3121;SDS011;1571;52.524;14.104;2023-03-01T10:31:33;2.07;;;1.90;;
3121;SDS011;1571;52.524;14.104;2023-03-01T10:34:13;3.10;;;2.40;;
3121;SDS011;1571;52.524;14.104;2023-03-01T10:36:47;3.90;;;2.30;;
3121;SDS011;1571;52.524;14.104;2023-03-01T10:39:18;3.73;;;3.23;;
3121;SDS011;1571;52.524;14.104;2023-03-01T10:41:54;2.93;;;2.40;;
3121;SDS011;1571;52.524;14.104;2023-03-01T10:44:37;3.92;;;2.40;;
3121;SDS011;1571;52.524;14.104;2023-03-01T10:47:17;2.67;;;2.08;;
3121;SDS011;1571;52.524;14.104;2023-03-01T10:49:58;3.90;;;3.20;;
3121;SDS011;1571;52.524;14.104;2023-03-01T10:52:31;2.35;;;2.00;;
3121;SDS011;1571;52.524;14.104;2023-03-01T10:55:03;2.23;;;2.03;;
3121;SDS011;1571;52.524;14.104;2023-03-01T10:57:46;2.20;;;2.00;;
3121;SDS011;1571;52.524;14.104;2023-03-01T11:00:21;6.00;;;2.80;;
3121;SDS011;1571;52.524;14.104;2023-03-01T11:03:01;3.08;;;2.78;;
3121;SDS011;1571;52.524;14.104;2023-03-01T11:05:44;2.37;;;2.17;;
3121;SDS011;1571;52.524;14.104;2023-03-01T11:08:31;2.30;;;1.97;;
3121;SDS011;1571;52.524;14.104;2023-03-01T11:11:05;1.93;;;1.60;;
3121;SDS011;1571;52.524;14.104;2023-03-01T11:13:50;2.00;;;1.80;;
3121;SDS011;1571;52.524;14.104;2023-03-01T11:16:24;1.55;;;1.40;;
3121;SDS011;1571;52.524;14.104;2023-03-01T11:18:56;5.97;;;2.53;;
3121;SDS011;1571;52.524;14.104;2023-03-01T11:21:26;4.33;;;1.90;;
3121;SDS011;1571;52.524;14.104;2023-03-01T11:24:01;2.57;;;1.93;;
3121;SDS011;1571;52.524;14.104;2023-03-01T11:26:31;2.73;;;2.50;;
3121;SDS011;1571;52.524;14.104;2023-03-01T11:29:06;3.47;;;2.93;;
3121;SDS011;1571;52.524;14.104;2023-03-01T11:31:44;5.43;;;2.20;;
3121;SDS011;1571;52.524;14.104;2023-03-01T11:34:24;3.17;;;1.93;;
3121;SDS011;1571;52.524;14.104;2023-03-01T11:37:07;4.03;;;2.65;;
3121;SDS011;1571;52.524;14.104;2023-03-01T11:39:46;3.10;;;2.30;;
3121;SDS011;1571;52.524;14.104;2023-03-01T11:42:22;3.00;;;1.80;;
3121;SDS011;1571;52.524;14.104;2023-03-01T11:44:56;4.40;;;2.63;;
3121;SDS011;1571;52.524;14.104;2023-03-01T11:47:32;4.60;;;1.83;;
3121;SDS011;1571;52.524;14.104;2023-03-01T11:50:18;2.47;;;2.27;;
3121;SDS011;1571;52.524;14.104;2023-03-01T11:52:55;2.38;;;2.17;;
3121;SDS011;1571;52.524;14.104;2023-03-01T11:55:44;2.03;;;1.60;;
3121;SDS011;1571;52.524;14.104;2023-03-01T11:58:27;5.23;;;1.80;;
3121;SDS011;1571;52.524;14.104;2023-03-01T12:01:11;2.10;;;1.90;;
3121;SDS011;1571;52.524;14.104;2023-03-01T12:03:56;2.63;;;1.33;;
3121;SDS011;1571;52.524;14.104;2023-03-01T12:06:43;3.40;;;1.50;;
3121;SDS011;1571;52.524;14.104;2023-03-01T12:09:30;1.75;;;1.15;;
3121;SDS011;1571;52.524;14.104;2023-03-01T12:12:12;2.33;;;1.70;;
3121;SDS011;1571;52.524;14.104;2023-03-01T12:14:55;1.93;;;1.50;;
3121;SDS011;1571;52.524;14.104;2023-03-01T12:17:52;2.50;;;1.30;;
3121;SDS011;1571;52.524;14.104;2023-03-01T12:20:30;3.37;;;1.07;;
3121;SDS011;1571;52.524;14.104;2023-03-01T12:23:15;2.67;;;1.97;;
3121;SDS011;1571;52.524;14.104;2023-03-01T12:25:55;1.83;;;1.17;;
3121;SDS011;1571;52.524;14.104;2023-03-01T12:31:38;2.50;;;2.23;;
3121;SDS011;1571;52.524;14.104;2023-03-01T12:34:24;6.73;;;1.90;;
3121;SDS011;1571;52.524;14.104;2023-03-01T12:37:09;1.43;;;1.27;;
3121;SDS011;1571;52.524;14.104;2023-03-01T12:39:48;1.37;;;1.17;;
3121;SDS011;1571;52.524;14.104;2023-03-01T12:42:27;1.80;;;1.43;;
3121;SDS011;1571;52.524;14.104;2023-03-01T12:45:25;1.97;;;1.63;;
3121;SDS011;1571;52.524;14.104;2023-03-01T12:48:17;1.30;;;1.15;;
3121;SDS011;1571;52.524;14.104;2023-03-01T12:50:52;1.88;;;1.30;;
3121;SDS011;1571;52.524;14.104;2023-03-01T12:53:23;2.08;;;1.15;;
3121;SDS011;1571;52.524;14.104;2023-03-01T12:55:53;1.63;;;1.40;;
3121;SDS011;1571;52.524;14.104;2023-03-01T12:58:27;1.47;;;1.37;;
3121;SDS011;1571;52.524;14.104;2023-03-01T13:01:18;2.40;;;1.30;;
3121;SDS011;1571;52.524;14.104;2023-03-01T13:06:47;1.63;;;1.53;;
3121;SDS011;1571;52.524;14.104;2023-03-01T13:09:24;2.40;;;1.30;;
3121;SDS011;1571;52.524;14.104;2023-03-01T13:11:58;2.03;;;1.10;;
3121;SDS011;1571;52.524;14.104;2023-03-01T13:14:45;1.00;;;0.90;;
3121;SDS011;1571;52.524;14.104;2023-03-01T13:17:31;1.67;;;0.90;;
3121;SDS011;1571;52.524;14.104;2023-03-01T13:20:15;5.60;;;1.00;;
3121;SDS011;1571;52.524;14.104;2023-03-01T13:22:45;1.17;;;1.07;;
3121;SDS011;1571;52.524;14.104;2023-03-01T13:25:20;1.67;;;0.97;;
3121;SDS011;1571;52.524;14.104;2023-03-01T13:31:07;1.33;;;1.00;;
3121;SDS011;1571;52.524;14.104;2023-03-01T13:33:41;2.50;;;1.10;;
3121;SDS011;1571;52.524;14.104;2023-03-01T13:39:27;3.38;;;1.20;;
3121;SDS011;1571;52.524;14.104;2023-03-01T13:41:59;0.90;;;0.80;;
3121;SDS011;1571;52.524;14.104;2023-03-01T13:44:29;1.20;;;1.00;;
3121;SDS011;1571;52.524;14.104;2023-03-01T13:47:03;9.60;;;1.40;;
3121;SDS011;1571;52.524;14.104;2023-03-01T13:49:43;1.20;;;1.10;;
3121;SDS011;1571;52.524;14.104;2023-03-01T13:52:30;3.05;;;0.90;;
3121;SDS011;1571;52.524;14.104;2023-03-01T13:55:05;2.00;;;0.90;;
3121;SDS011;1571;52.524;14.104;2023-03-01T13:57:44;1.70;;;1.50;;
3121;SDS011;1571;52.524;14.104;2023-03-01T14:00:34;1.30;;;1.20;;
3121;SDS011;1571;52.524;14.104;2023-03-01T14:03:13;2.08;;;1.85;;
3121;SDS011;1571;52.524;14.104;2023-03-01T14:05:57;1.63;;;1.20;;
3121;SDS011;1571;52.524;14.104;2023-03-01T14:08:39;2.93;;;1.40;;
3121;SDS011;1571;52.524;14.104;2023-03-01T14:11:14;4.75;;;2.13;;
3121;SDS011;1571;52.524;14.104;2023-03-01T14:17:00;1.93;;;1.60;;
3121;SDS011;1571;52.524;14.104;2023-03-01T14:19:37;4.23;;;1.60;;
3121;SDS011;1571;52.524;14.104;2023-03-01T14:22:13;1.83;;;1.50;;
3121;SDS011;1571;52.524;14.104;2023-03-01T14:24:47;2.53;;;2.10;;
3121;SDS011;1571;52.524;14.104;2023-03-01T14:27:17;4.53;;;2.00;;
3121;SDS011;1571;52.524;14.104;2023-03-01T14:29:53;1.97;;;1.77;;
3121;SDS011;1571;52.524;14.104;2023-03-01T14:32:24;3.65;;;2.10;;
3121;SDS011;1571;52.524;14.104;2023-03-01T14:34:53;2.10;;;1.83;;
3121;SDS011;1571;52.524;14.104;2023-03-01T14:37:24;2.40;;;2.20;;
3121;SDS011;1571;52.524;14.104;2023-03-01T14:39:55;2.00;;;1.80;;
3121;SDS011;1571;52.524;14.104;2023-03-01T14:42:25;2.17;;;2.00;;
3121;SDS011;1571;52.524;14.104;2023-03-01T14:44:57;4.15;;;1.85;;
3121;SDS011;1571;52.524;14.104;2023-03-01T14:47:35;2.67;;;2.30;;
3121;SDS011;1571;52.524;14.104;2023-03-01T14:50:07;3.30;;;1.50;;
3121;SDS011;1571;52.524;14.104;2023-03-01T14:52:38;5.83;;;2.30;;
3121;SDS011;1571;52.524;14.104;2023-03-01T14:55:13;2.40;;;2.20;;
3121;SDS011;1571;52.524;14.104;2023-03-01T14:57:46;4.20;;;1.93;;
3121;SDS011;1571;52.524;14.104;2023-03-01T15:00:17;2.00;;;1.80;;
3121;SDS011;1571;52.524;14.104;2023-03-01T15:02:48;1.93;;;1.63;;
3121;SDS011;1571;52.524;14.104;2023-03-01T15:05:22;3.57;;;1.93;;
3121;SDS011;1571;52.524;14.104;2023-03-01T15:07:56;5.35;;;3.72;;
3121;SDS011;1571;52.524;14.104;2023-03-01T15:10:26;2.90;;;1.80;;
3121;SDS011;1571;52.524;14.104;2023-03-01T15:12:58;2.90;;;2.43;;
3121;SDS011;1571;52.524;14.104;2023-03-01T15:15:38;2.67;;;1.73;;
3121;SDS011;1571;52.524;14.104;2023-03-01T15:18:15;2.17;;;1.83;;
3121;SDS011;1571;52.524;14.104;2023-03-01T15:20:46;2.00;;;1.80;;
3121;SDS011;1571;52.524;14.104;2023-03-01T15:23:21;2.55;;;1.83;;
3121;SDS011;1571;52.524;14.104;2023-03-01T15:25:51;3.20;;;1.83;;
3121;SDS011;1571;52.524;14.104;2023-03-01T15:28:24;1.80;;;1.47;;
3121;SDS011;1571;52.524;14.104;2023-03-01T15:30:55;1.87;;;1.50;;
3121;SDS011;1571;52.524;14.104;2023-03-01T15:33:34;3.20;;;1.80;;
3121;SDS011;1571;52.524;14.104;2023-03-01T15:39:02;2.10;;;1.53;;
3121;SDS011;1571;52.524;14.104;2023-03-01T15:41:37;1.55;;;1.45;;
3121;SDS011;1571;52.524;14.104;2023-03-01T15:44:14;3.00;;;1.40;;
3121;SDS011;1571;52.524;14.104;2023-03-01T15:46:45;2.80;;;1.53;;
3121;SDS011;1571;52.524;14.104;2023-03-01T15:49:26;1.33;;;1.00;;